Time;durP1;ratioP1;P1;durP2;ratioP2;P2;SDS_P1;SDS_P2;PMS_P1;PMS_P2;Temp;Humidity;BMP_temperature;BMP_pressure;BME280_temperature;BME280_humidity;BME280_pressure;Samples;Min_cycle;Max_cycle;Signal;HPM_P1;HPM_P2
2023/04/07 00:02:11;;;;;;;;;;;4.60;99.90;;;;;;5002621;28;19989;-67
2023/04/07 00:04:39;;;;;;;;;;;4.60;99.90;;;;;;5002058;28;19930;-66
2023/04/07 00:07:06;;;;;;;;;;;4.60;99.90;;;;;;5001030;28;19930;-66
2023/04/07 00:09:32;;;;;;;;;;;4.60;99.90;;;;;;5002701;28;19961;-66
2023/04/07 00:12:01;;;;;;;;;;;4.60;99.90;;;;;;5002182;28;19953;-67
2023/04/07 00:14:28;;;;;;;;;;;4.60;99.90;;;;;;5001748;28;19959;-67
2023/04/07 00:16:54;;;;;;;;;;;4.70;99.90;;;;;;5001445;28;19992;-66
2023/04/07 00:19:21;;;;;;;;;;;4.70;99.90;;;;;;5002186;28;20236;-67
2023/04/07 00:21:49;;;;;;;;;;;4.60;99.90;;;;;;5002089;28;19980;-67
2023/04/07 00:24:16;;;;;;;;;;;4.60;99.90;;;;;;5002503;28;19922;-66
2023/04/07 00:26:42;;;;;;;;;;;4.60;99.90;;;;;;5001923;28;20205;-67
2023/04/07 00:29:09;;;;;;;;;;;4.60;99.90;;;;;;5002114;28;20000;-66
2023/04/07 00:31:35;;;;;;;;;;;4.70;99.90;;;;;;5001688;28;19972;-67
2023/04/07 00:34:02;;;;;;;;;;;4.70;99.90;;;;;;5001596;28;19926;-66
2023/04/07 00:36:29;;;;;;;;;;;4.70;99.90;;;;;;5001296;28;20008;-67
2023/04/07 00:38:57;;;;;;;;;;;4.70;99.90;;;;;;5001763;28;19930;-67
2023/04/07 00:41:23;;;;;;;;;;;4.60;99.90;;;;;;5001972;28;19922;-67
2023/04/07 00:43:50;;;;;;;;;;;4.60;99.90;;;;;;5001535;28;19997;-67
2023/04/07 00:46:17;;;;;;;;;;;4.60;99.90;;;;;;5002011;28;19953;-67
2023/04/07 00:48:44;;;;;;;;;;;4.60;99.90;;;;;;5002417;28;19936;-67
2023/04/07 00:51:11;;;;;;;;;;;4.60;99.90;;;;;;5002589;28;20000;-67
2023/04/07 00:53:37;;;;;;;;;;;4.60;99.90;;;;;;5001118;28;19957;-67
2023/04/07 00:56:06;;;;;;;;;;;4.60;99.90;;;;;;5001307;28;20260;-66
2023/04/07 00:58:32;;;;;;;;;;;4.60;99.90;;;;;;4999078;28;19929;-67
2023/04/07 01:01:04;;;;;;;;;;;4.60;99.90;;;;;;5002053;28;19929;-66
2023/04/07 01:03:33;;;;;;;;;;;4.50;99.90;;;;;;5001551;28;19922;-66
2023/04/07 01:06:01;;;;;;;;;;;4.50;99.90;;;;;;5002225;28;19961;-66
2023/04/07 01:08:33;;;;;;;;;;;4.50;99.90;;;;;;4999326;28;19929;-67
2023/04/07 01:11:02;;;;;;;;;;;4.40;99.90;;;;;;5002154;28;19921;-66
2023/04/07 01:13:34;;;;;;;;;;;4.50;99.90;;;;;;5003433;28;19922;-67
2023/04/07 01:16:02;;;;;;;;;;;4.40;99.90;;;;;;5002911;28;19929;-67
2023/04/07 01:18:31;;;;;;;;;;;4.40;99.90;;;;;;5004653;28;20128;-66
2023/04/07 01:21:03;;;;;;;;;;;4.40;99.90;;;;;;5005423;28;20229;-66
2023/04/07 01:23:38;;;;;;;;;;;4.40;99.90;;;;;;5005155;28;19929;-67
2023/04/07 01:26:10;;;;;;;;;;;4.40;99.90;;;;;;5004910;28;20029;-66
2023/04/07 01:29:00;;;;;;;;;;;4.40;99.90;;;;;;5002470;28;19930;-67
2023/04/07 01:31:29;;;;;;;;;;;4.40;99.90;;;;;;5004481;28;20020;-66
2023/04/07 01:33:57;;;;;;;;;;;4.40;99.90;;;;;;5005252;28;19928;-67
2023/04/07 01:36:24;;;;;;;;;;;4.40;99.90;;;;;;5004832;28;19969;-67
2023/04/07 01:38:51;;;;;;;;;;;4.40;99.90;;;;;;5005475;28;19929;-66
2023/04/07 01:41:18;;;;;;;;;;;4.40;99.90;;;;;;5004932;28;19989;-67
2023/04/07 01:43:45;;;;;;;;;;;4.40;99.90;;;;;;5005291;28;19921;-66
2023/04/07 01:46:12;;;;;;;;;;;4.50;99.90;;;;;;5004282;28;19922;-67
2023/04/07 01:48:40;;;;;;;;;;;4.40;99.90;;;;;;5004662;28;19992;-67
2023/04/07 01:51:07;;;;;;;;;;;4.40;99.90;;;;;;5004440;28;19985;-66
2023/04/07 01:53:36;;;;;;;;;;;4.40;99.90;;;;;;5003802;28;19989;-66
2023/04/07 01:56:03;;;;;;;;;;;4.40;99.90;;;;;;5003776;28;19928;-66
2023/04/07 01:58:29;;;;;;;;;;;4.30;99.90;;;;;;5004056;28;20033;-67
2023/04/07 02:00:56;;;;;;;;;;;4.30;99.90;;;;;;5004346;28;19937;-67
2023/04/07 02:03:23;;;;;;;;;;;4.30;99.90;;;;;;5004834;28;20026;-66
2023/04/07 02:05:54;;;;;;;;;;;4.30;99.90;;;;;;5004300;28;20293;-67
2023/04/07 02:08:24;;;;;;;;;;;4.40;99.90;;;;;;5002294;28;19989;-66
2023/04/07 02:10:51;;;;;;;;;;;4.40;99.90;;;;;;5004059;28;19926;-66
2023/04/07 02:13:19;;;;;;;;;;;4.40;99.90;;;;;;5003891;28;20109;-65
2023/04/07 02:15:46;;;;;;;;;;;4.40;99.90;;;;;;5004274;28;20140;-66
2023/04/07 02:18:14;;;;;;;;;;;4.40;99.90;;;;;;4986027;28;20209;-67
2023/04/07 02:20:42;;;;;;;;;;;4.40;99.90;;;;;;4985477;28;20001;-67
2023/04/07 02:23:10;;;;;;;;;;;4.50;99.90;;;;;;4984316;28;20237;-66
2023/04/07 02:25:38;;;;;;;;;;;4.60;99.90;;;;;;4982857;28;20299;-66
2023/04/07 02:28:05;;;;;;;;;;;4.70;99.90;;;;;;4983511;28;19981;-66
2023/04/07 02:30:32;;;;;;;;;;;4.90;99.90;;;;;;4984905;28;19929;-66
2023/04/07 02:32:58;;;;;;;;;;;5.00;99.90;;;;;;4984637;28;19979;-66
2023/04/07 02:35:25;;;;;;;;;;;5.10;99.90;;;;;;4983849;28;20012;-66
2023/04/07 02:37:52;;;;;;;;;;;5.20;99.90;;;;;;4983809;28;19991;-65
2023/04/07 02:40:20;;;;;;;;;;;5.30;99.90;;;;;;4984429;28;19930;-66
2023/04/07 02:42:46;;;;;;;;;;;5.30;99.90;;;;;;4983975;28;19992;-66
2023/04/07 02:45:13;;;;;;;;;;;5.40;99.90;;;;;;4983800;28;19985;-66
2023/04/07 02:47:40;;;;;;;;;;;5.30;99.90;;;;;;4983319;28;19930;-66
2023/04/07 02:50:07;;;;;;;;;;;5.40;99.90;;;;;;4984485;28;19976;-66
2023/04/07 02:52:33;;;;;;;;;;;5.50;99.90;;;;;;4992294;28;19922;-66
2023/04/07 02:55:00;;;;;;;;;;;5.50;99.90;;;;;;5003718;28;20267;-66
2023/04/07 02:57:28;;;;;;;;;;;5.50;99.90;;;;;;5003302;28;19930;-66
2023/04/07 02:59:56;;;;;;;;;;;5.50;99.90;;;;;;4983383;28;20221;-67
2023/04/07 03:02:23;;;;;;;;;;;5.50;99.90;;;;;;4984694;28;19922;-66
2023/04/07 03:04:50;;;;;;;;;;;5.50;99.90;;;;;;4984500;28;19990;-66
2023/04/07 03:07:17;;;;;;;;;;;5.50;99.90;;;;;;4983792;28;19936;-67
2023/04/07 03:09:43;;;;;;;;;;;5.40;99.90;;;;;;4983650;28;19993;-66
2023/04/07 03:12:10;;;;;;;;;;;5.50;99.90;;;;;;4983467;28;19953;-66
2023/04/07 03:14:38;;;;;;;;;;;5.50;99.90;;;;;;4983720;28;19922;-66
2023/04/07 03:17:05;;;;;;;;;;;5.50;99.90;;;;;;4982861;28;19973;-66
2023/04/07 03:19:31;;;;;;;;;;;5.50;99.90;;;;;;4984104;28;19957;-66
2023/04/07 03:21:58;;;;;;;;;;;5.50;99.90;;;;;;4984004;28;20000;-66
2023/04/07 03:24:25;;;;;;;;;;;5.50;99.90;;;;;;4983499;28;20249;-66
2023/04/07 03:26:52;;;;;;;;;;;5.50;99.90;;;;;;4983687;28;19957;-66
2023/04/07 03:29:19;;;;;;;;;;;5.60;99.90;;;;;;4983748;28;20177;-66
2023/04/07 03:31:47;;;;;;;;;;;5.60;99.90;;;;;;4983256;28;19989;-66
2023/04/07 03:34:13;;;;;;;;;;;5.60;99.90;;;;;;4982839;28;19936;-66
2023/04/07 03:36:40;;;;;;;;;;;5.60;99.90;;;;;;4982031;28;20005;-67
2023/04/07 03:39:06;;;;;;;;;;;5.60;99.90;;;;;;4984229;28;20241;-66
2023/04/07 03:41:33;;;;;;;;;;;5.60;99.90;;;;;;4984039;28;19953;-66
2023/04/07 03:44:00;;;;;;;;;;;5.60;99.90;;;;;;4984053;28;19953;-67
2023/04/07 03:46:26;;;;;;;;;;;5.60;99.90;;;;;;4983043;28;20228;-66
2023/04/07 03:48:55;;;;;;;;;;;5.60;99.90;;;;;;4983692;28;19994;-66
2023/04/07 03:51:21;;;;;;;;;;;5.50;99.90;;;;;;4984105;28;19960;-66
2023/04/07 03:53:48;;;;;;;;;;;5.50;99.90;;;;;;5002058;28;20145;-66
2023/04/07 03:56:15;;;;;;;;;;;5.50;99.90;;;;;;5002717;28;19989;-66
2023/04/07 03:58:43;;;;;;;;;;;5.50;99.90;;;;;;5003323;28;19930;-66
2023/04/07 04:01:09;;;;;;;;;;;5.50;99.90;;;;;;5003826;28;19937;-67
2023/04/07 04:03:36;;;;;;;;;;;5.50;99.90;;;;;;5003287;28;19988;-66
2023/04/07 04:06:04;;;;;;;;;;;5.50;99.90;;;;;;5002592;28;20166;-66
2023/04/07 04:08:31;;;;;;;;;;;5.40;99.90;;;;;;5003435;28;20233;-66
2023/04/07 04:10:57;;;;;;;;;;;5.40;99.90;;;;;;5003193;28;19953;-66
2023/04/07 04:13:24;;;;;;;;;;;5.40;99.90;;;;;;5002793;28;19928;-66
2023/04/07 04:15:51;;;;;;;;;;;5.40;99.90;;;;;;5002979;28;19929;-67
2023/04/07 04:18:17;;;;;;;;;;;5.40;99.90;;;;;;5003133;28;19968;-66
2023/04/07 04:20:44;;;;;;;;;;;5.40;99.90;;;;;;5003293;28;20158;-66
2023/04/07 04:23:12;;;;;;;;;;;5.40;99.90;;;;;;5002713;28;19926;-66
2023/04/07 04:25:39;;;;;;;;;;;5.40;99.90;;;;;;5002643;28;19928;-66
2023/04/07 04:28:06;;;;;;;;;;;5.40;99.90;;;;;;5003098;28;20121;-66
2023/04/07 04:30:33;;;;;;;;;;;5.40;99.90;;;;;;5003349;28;19984;-66
2023/04/07 04:32:59;;;;;;;;;;;5.40;99.90;;;;;;5002949;28;20268;-67
2023/04/07 04:35:26;;;;;;;;;;;5.40;99.90;;;;;;5002821;28;19957;-66
2023/04/07 04:37:53;;;;;;;;;;;5.50;99.90;;;;;;5002219;28;19922;-66
2023/04/07 04:40:21;;;;;;;;;;;5.40;99.90;;;;;;5002908;28;19957;-66
2023/04/07 04:42:48;;;;;;;;;;;5.40;99.90;;;;;;5002589;28;19922;-66
2023/04/07 04:45:15;;;;;;;;;;;5.40;99.90;;;;;;5002381;28;19922;-66
2023/04/07 04:47:42;;;;;;;;;;;5.40;99.90;;;;;;5002423;28;20153;-67
2023/04/07 04:50:09;;;;;;;;;;;5.40;99.90;;;;;;5006337;28;20165;-66
2023/04/07 04:52:37;;;;;;;;;;;5.40;99.90;;;;;;5006026;28;19932;-67
2023/04/07 04:55:03;;;;;;;;;;;5.40;99.90;;;;;;5006410;28;19968;-66
2023/04/07 04:57:33;;;;;;;;;;;5.40;99.90;;;;;;5006158;28;19928;-66
2023/04/07 05:00:00;;;;;;;;;;;5.60;99.90;;;;;;5006785;28;19936;-66
2023/04/07 05:02:27;;;;;;;;;;;5.40;99.90;;;;;;5003936;28;19928;-66
2023/04/07 05:04:53;;;;;;;;;;;5.40;99.90;;;;;;5004291;28;19936;-67
2023/04/07 05:07:20;;;;;;;;;;;5.50;99.90;;;;;;5003437;28;20218;-66
2023/04/07 05:09:46;;;;;;;;;;;5.50;99.90;;;;;;5004669;28;19932;-66
2023/04/07 05:12:13;;;;;;;;;;;5.50;99.90;;;;;;5004023;28;19996;-65
2023/04/07 05:14:41;;;;;;;;;;;5.40;99.90;;;;;;5004025;28;19957;-66
2023/04/07 05:17:08;;;;;;;;;;;5.40;99.90;;;;;;5003586;28;20000;-66
2023/04/07 05:19:35;;;;;;;;;;;5.30;99.90;;;;;;5002477;28;19929;-66
2023/04/07 05:22:03;;;;;;;;;;;5.30;99.90;;;;;;5003421;28;19989;-67
2023/04/07 05:24:30;;;;;;;;;;;5.30;99.90;;;;;;5006479;28;20001;-66
2023/04/07 05:26:56;;;;;;;;;;;5.30;99.90;;;;;;5004942;28;19964;-67
2023/04/07 05:29:23;;;;;;;;;;;5.30;99.90;;;;;;5003798;28;19965;-66
2023/04/07 05:31:51;;;;;;;;;;;5.40;99.90;;;;;;5005896;28;19969;-66
2023/04/07 05:34:18;;;;;;;;;;;5.40;99.90;;;;;;5005949;28;19930;-66
2023/04/07 05:36:44;;;;;;;;;;;5.40;99.90;;;;;;4992739;28;19989;-67
2023/04/07 05:39:11;;;;;;;;;;;5.40;99.90;;;;;;4986547;28;19926;-66
2023/04/07 05:41:38;;;;;;;;;;;5.50;99.90;;;;;;4986719;28;19973;-66
2023/04/07 05:44:05;;;;;;;;;;;5.50;99.90;;;;;;4990181;28;19950;-66
2023/04/07 05:46:31;;;;;;;;;;;5.50;99.90;;;;;;5004501;28;19961;-66
2023/04/07 05:49:00;;;;;;;;;;;5.50;99.90;;;;;;5005050;28;19949;-66
2023/04/07 05:51:26;;;;;;;;;;;5.50;99.90;;;;;;5004034;28;20020;-66
2023/04/07 05:53:53;;;;;;;;;;;5.50;99.90;;;;;;5004476;28;19928;-66
2023/04/07 05:56:20;;;;;;;;;;;5.50;99.90;;;;;;5003630;28;19941;-66
2023/04/07 05:58:46;;;;;;;;;;;5.60;99.90;;;;;;5004314;28;20206;-67
2023/04/07 06:01:13;;;;;;;;;;;5.70;99.90;;;;;;5004892;28;19961;-66
2023/04/07 06:03:40;;;;;;;;;;;5.70;99.90;;;;;;5004664;28;19973;-67
2023/04/07 06:06:08;;;;;;;;;;;5.70;99.90;;;;;;4984034;28;20133;-66
2023/04/07 06:08:35;;;;;;;;;;;5.80;99.90;;;;;;4985226;28;19944;-66
2023/04/07 06:11:01;;;;;;;;;;;5.70;99.90;;;;;;4984717;28;19937;-66
2023/04/07 06:13:28;;;;;;;;;;;5.70;99.90;;;;;;4985112;28;19949;-66
2023/04/07 06:15:55;;;;;;;;;;;5.70;99.90;;;;;;4984666;28;19936;-68
2023/04/07 06:18:21;;;;;;;;;;;5.70;99.90;;;;;;4985004;28;19922;-66
2023/04/07 06:20:48;;;;;;;;;;;5.70;99.90;;;;;;4985011;28;19922;-67
2023/04/07 06:23:16;;;;;;;;;;;5.70;99.90;;;;;;4984743;28;19989;-66
2023/04/07 06:25:43;;;;;;;;;;;5.70;99.90;;;;;;4984715;28;19936;-67
2023/04/07 06:28:10;;;;;;;;;;;5.60;99.90;;;;;;4984161;28;19930;-66
2023/04/07 06:30:37;;;;;;;;;;;5.50;99.90;;;;;;4984174;28;19937;-66
2023/04/07 06:33:03;;;;;;;;;;;5.50;99.90;;;;;;4983931;28;19997;-65
2023/04/07 06:35:30;;;;;;;;;;;5.50;99.90;;;;;;4984736;28;19945;-66
2023/04/07 06:37:57;;;;;;;;;;;5.50;99.90;;;;;;4984632;28;19957;-66
2023/04/07 06:40:25;;;;;;;;;;;5.50;99.90;;;;;;4984999;28;19922;-66
2023/04/07 06:42:53;;;;;;;;;;;5.50;99.90;;;;;;4984538;28;19957;-66
2023/04/07 06:45:20;;;;;;;;;;;5.50;99.90;;;;;;4983741;28;19930;-66
2023/04/07 06:47:47;;;;;;;;;;;5.60;99.90;;;;;;4982678;28;20000;-67
2023/04/07 06:50:13;;;;;;;;;;;5.60;99.90;;;;;;4982916;28;19930;-66
2023/04/07 06:52:40;;;;;;;;;;;5.60;99.90;;;;;;4991855;28;19953;-66
2023/04/07 06:55:07;;;;;;;;;;;5.60;99.90;;;;;;5002533;28;20121;-67
2023/04/07 06:57:35;;;;;;;;;;;5.70;99.90;;;;;;5001655;28;19936;-66
2023/04/07 07:00:02;;;;;;;;;;;5.70;99.90;;;;;;4982365;28;19936;-65
2023/04/07 07:02:29;;;;;;;;;;;5.70;99.90;;;;;;4982215;28;20273;-66
2023/04/07 07:04:56;;;;;;;;;;;5.70;99.90;;;;;;4990098;28;19936;-66
2023/04/07 07:07:24;;;;;;;;;;;5.80;99.90;;;;;;5001300;28;20118;-66
2023/04/07 07:09:51;;;;;;;;;;;5.80;99.90;;;;;;5003119;28;20013;-66
2023/04/07 07:12:17;;;;;;;;;;;5.80;99.90;;;;;;5002051;28;20280;-66
2023/04/07 07:14:46;;;;;;;;;;;5.80;99.90;;;;;;5003077;28;19929;-68
2023/04/07 07:17:13;;;;;;;;;;;5.80;99.90;;;;;;5001703;28;19933;-66
2023/04/07 07:19:40;;;;;;;;;;;5.80;99.90;;;;;;5000982;28;19949;-66
2023/04/07 07:22:07;;;;;;;;;;;5.90;99.90;;;;;;5002851;28;19953;-66
2023/04/07 07:24:33;;;;;;;;;;;5.90;99.90;;;;;;5003207;28;19936;-67
2023/04/07 07:27:00;;;;;;;;;;;6.00;99.90;;;;;;5002340;28;19992;-66
2023/04/07 07:29:29;;;;;;;;;;;6.00;99.90;;;;;;5000170;28;19922;-66
2023/04/07 07:31:57;;;;;;;;;;;6.10;99.90;;;;;;5002823;28;19922;-66
2023/04/07 07:34:28;;;;;;;;;;;6.20;99.90;;;;;;5001979;28;20162;-66
2023/04/07 07:36:54;;;;;;;;;;;6.20;99.90;;;;;;5002377;28;19964;-67
2023/04/07 07:39:21;;;;;;;;;;;6.30;99.90;;;;;;5003278;28;19922;-68
2023/04/07 07:41:49;;;;;;;;;;;6.30;99.90;;;;;;5003104;28;19976;-66
2023/04/07 07:44:19;;;;;;;;;;;6.30;99.90;;;;;;5000299;28;19926;-67
2023/04/07 07:46:45;;;;;;;;;;;6.50;99.90;;;;;;5001895;28;19944;-66
2023/04/07 07:49:13;;;;;;;;;;;6.50;99.90;;;;;;5003113;28;20009;-66
2023/04/07 07:51:40;;;;;;;;;;;6.60;99.90;;;;;;5002021;28;19969;-66
2023/04/07 07:54:08;;;;;;;;;;;6.60;99.90;;;;;;5003391;28;20121;-67
2023/04/07 07:56:34;;;;;;;;;;;6.70;99.90;;;;;;5002859;28;19928;-67
2023/04/07 07:59:01;;;;;;;;;;;6.70;99.90;;;;;;5002846;28;19921;-67
2023/04/07 08:01:28;;;;;;;;;;;6.70;99.90;;;;;;5002885;28;19928;-67
2023/04/07 08:03:55;;;;;;;;;;;6.70;99.90;;;;;;5002194;28;20184;-67
2023/04/07 08:06:22;;;;;;;;;;;6.80;99.90;;;;;;5001627;28;19922;-67
2023/04/07 08:08:50;;;;;;;;;;;6.90;99.90;;;;;;5003452;28;19922;-68
2023/04/07 08:11:16;;;;;;;;;;;6.90;99.90;;;;;;5003901;28;19921;-67
2023/04/07 08:13:44;;;;;;;;;;;7.00;99.90;;;;;;5004035;28;19922;-67
2023/04/07 08:16:10;;;;;;;;;;;7.00;99.90;;;;;;5003196;28;19921;-66
2023/04/07 08:18:37;;;;;;;;;;;7.10;99.90;;;;;;5003756;28;20096;-67
2023/04/07 08:21:04;;;;;;;;;;;7.20;99.90;;;;;;5003848;28;19997;-67
2023/04/07 08:23:32;;;;;;;;;;;7.20;99.90;;;;;;5003009;28;19922;-67
2023/04/07 08:25:59;;;;;;;;;;;7.30;99.90;;;;;;5003545;28;20168;-67
2023/04/07 08:28:26;;;;;;;;;;;7.30;99.90;;;;;;5003632;28;19922;-67
2023/04/07 08:30:52;;;;;;;;;;;7.40;99.90;;;;;;5003952;28;19921;-67
2023/04/07 08:33:19;;;;;;;;;;;7.40;99.90;;;;;;5003765;28;19960;-67
2023/04/07 08:35:46;;;;;;;;;;;7.50;99.90;;;;;;5003773;28;19922;-67
2023/04/07 08:38:12;;;;;;;;;;;7.50;99.90;;;;;;5003414;28;19969;-67
2023/04/07 08:40:41;;;;;;;;;;;7.60;99.90;;;;;;5003921;28;19924;-67
2023/04/07 08:43:08;;;;;;;;;;;7.60;99.90;;;;;;5003451;28;19965;-67
2023/04/07 08:45:38;;;;;;;;;;;7.60;99.90;;;;;;5003725;28;19981;-66
2023/04/07 08:48:06;;;;;;;;;;;7.70;99.90;;;;;;5003215;28;19960;-67
2023/04/07 08:50:33;;;;;;;;;;;7.70;99.90;;;;;;5003827;28;19993;-67
2023/04/07 08:53:00;;;;;;;;;;;7.80;99.90;;;;;;5000519;28;19921;-66
2023/04/07 08:55:27;;;;;;;;;;;7.80;99.90;;;;;;4986144;28;19957;-67
2023/04/07 08:57:55;;;;;;;;;;;7.90;99.90;;;;;;5000472;28;20113;-66
2023/04/07 09:00:22;;;;;;;;;;;7.90;99.90;;;;;;5003241;28;19997;-67
2023/04/07 09:02:50;;;;;;;;;;;8.00;99.90;;;;;;5003444;28;20261;-67
2023/04/07 09:05:17;;;;;;;;;;;8.00;99.90;;;;;;5003145;28;19922;-66
2023/04/07 09:07:43;;;;;;;;;;;8.10;99.90;;;;;;4983648;28;19966;-67
2023/04/07 09:10:10;;;;;;;;;;;8.10;99.90;;;;;;4985147;28;19989;-66
2023/04/07 09:12:37;;;;;;;;;;;8.10;99.90;;;;;;4984244;28;19929;-67
2023/04/07 09:15:06;;;;;;;;;;;8.20;99.90;;;;;;4994471;28;19922;-67
2023/04/07 09:17:32;;;;;;;;;;;8.20;99.90;;;;;;4989510;28;19957;-67
2023/04/07 09:20:00;;;;;;;;;;;8.30;99.90;;;;;;5003314;28;20165;-67
2023/04/07 09:22:37;;;;;;;;;;;8.30;99.90;;;;;;5003382;28;19926;-67
2023/04/07 09:25:10;;;;;;;;;;;8.30;99.90;;;;;;5003490;28;19985;-67
2023/04/07 09:27:37;;;;;;;;;;;8.30;99.90;;;;;;5002516;28;19981;-66
2023/04/07 09:30:13;;;;;;;;;;;8.40;99.90;;;;;;5003081;28;20241;-67
2023/04/07 09:32:40;;;;;;;;;;;8.40;99.90;;;;;;5003243;28;19957;-67
2023/04/07 09:35:07;;;;;;;;;;;8.40;99.90;;;;;;5005463;28;19981;-66
2023/04/07 09:37:34;;;;;;;;;;;8.40;99.90;;;;;;5006219;28;19921;-67
2023/04/07 09:40:01;;;;;;;;;;;8.50;99.90;;;;;;5004105;28;19941;-67
2023/04/07 09:42:31;;;;;;;;;;;8.50;99.90;;;;;;4993955;28;19981;-67
2023/04/07 09:44:58;;;;;;;;;;;8.50;99.90;;;;;;4987032;28;19926;-66
2023/04/07 09:47:29;;;;;;;;;;;8.50;99.90;;;;;;4993417;28;19922;-66
2023/04/07 09:49:58;;;;;;;;;;;8.50;99.90;;;;;;5006571;28;19997;-67
2023/04/07 09:52:26;;;;;;;;;;;8.60;99.90;;;;;;5006207;28;19929;-66
2023/04/07 09:54:54;;;;;;;;;;;8.70;99.90;;;;;;5006251;28;19961;-67
2023/04/07 09:57:21;;;;;;;;;;;8.70;99.90;;;;;;4998969;28;19922;-67
2023/04/07 09:59:48;;;;;;;;;;;8.80;99.90;;;;;;4997485;28;20175;-67
2023/04/07 10:02:15;;;;;;;;;;;8.90;99.90;;;;;;5006338;28;19976;-67
2023/04/07 10:04:43;;;;;;;;;;;9.00;99.90;;;;;;5005833;28;19922;-67
2023/04/07 10:07:10;;;;;;;;;;;9.10;99.90;;;;;;5005502;28;19985;-67
2023/04/07 10:09:37;;;;;;;;;;;9.30;99.90;;;;;;4999441;28;20099;-67
2023/04/07 10:12:04;;;;;;;;;;;9.40;99.90;;;;;;5001570;28;19985;-67
2023/04/07 10:14:31;;;;;;;;;;;9.50;99.90;;;;;;4996322;28;19926;-67
2023/04/07 10:16:59;;;;;;;;;;;9.60;99.90;;;;;;4993227;28;19929;-69
2023/04/07 10:19:29;;;;;;;;;;;9.70;99.90;;;;;;4999189;28;19936;-66
2023/04/07 10:21:58;;;;;;;;;;;9.70;99.90;;;;;;5005276;28;19922;-64
2023/04/07 10:24:30;;;;;;;;;;;9.70;99.90;;;;;;4988876;28;19922;-66
2023/04/07 10:27:00;;;;;;;;;;;9.70;99.90;;;;;;4989969;28;19922;-66
2023/04/07 10:29:29;;;;;;;;;;;9.70;99.90;;;;;;5004933;28;19922;-67
2023/04/07 10:31:56;;;;;;;;;;;9.70;99.90;;;;;;5005847;28;20180;-67
2023/04/07 10:34:37;;;;;;;;;;;9.70;99.90;;;;;;4998839;28;19957;-67
2023/04/07 10:37:12;;;;;;;;;;;9.60;99.90;;;;;;5001876;28;19997;-67
2023/04/07 10:39:40;;;;;;;;;;;9.60;99.90;;;;;;4985771;28;19985;-67
2023/04/07 10:42:07;;;;;;;;;;;9.50;99.90;;;;;;4985771;28;19922;-66
2023/04/07 10:44:48;;;;;;;;;;;9.50;99.90;;;;;;5003760;28;19922;-68
2023/04/07 10:47:15;;;;;;;;;;;9.40;99.90;;;;;;4992146;28;20113;-67
2023/04/07 10:49:59;;;;;;;;;;;9.40;99.90;;;;;;4989879;28;19921;-67
2023/04/07 10:52:27;;;;;;;;;;;9.40;99.90;;;;;;4988628;28;19981;-67
2023/04/07 10:55:11;;;;;;;;;;;9.40;99.90;;;;;;5005163;28;19985;-67
2023/04/07 10:57:38;;;;;;;;;;;9.50;99.90;;;;;;4994930;28;19984;-67
2023/04/07 11:00:14;;;;;;;;;;;9.50;99.90;;;;;;5005323;28;19922;-66
2023/04/07 11:02:41;;;;;;;;;;;9.50;99.90;;;;;;5004898;28;19930;-67
2023/04/07 11:05:08;;;;;;;;;;;9.50;99.90;;;;;;5001838;28;20161;-67
2023/04/07 11:07:49;;;;;;;;;;;9.50;99.90;;;;;;5004542;28;20201;-66
2023/04/07 11:10:17;;;;;;;;;;;9.60;99.90;;;;;;5004900;28;19921;-67
2023/04/07 11:12:45;;;;;;;;;;;9.60;99.90;;;;;;4998578;28;19929;-67
2023/04/07 11:15:18;;;;;;;;;;;9.70;99.90;;;;;;4985701;28;19965;-67
2023/04/07 11:17:44;;;;;;;;;;;9.70;99.90;;;;;;4996446;28;19921;-67
2023/04/07 11:20:11;;;;;;;;;;;9.80;99.90;;;;;;5004732;28;19968;-66
2023/04/07 11:22:39;;;;;;;;;;;9.80;99.90;;;;;;5001049;28;20225;-67
2023/04/07 11:25:21;;;;;;;;;;;9.90;99.90;;;;;;5005011;28;19989;-67
2023/04/07 11:27:49;;;;;;;;;;;10.00;99.90;;;;;;5004162;28;19945;-67
2023/04/07 11:30:17;;;;;;;;;;;10.00;99.90;;;;;;5002055;28;19922;-66
2023/04/07 11:32:48;;;;;;;;;;;10.20;99.90;;;;;;5004587;28;20149;-66
2023/04/07 11:35:15;;;;;;;;;;;10.30;99.90;;;;;;5004733;28;19922;-66
2023/04/07 11:37:41;;;;;;;;;;;10.40;99.90;;;;;;5003568;28;19922;-66
2023/04/07 11:40:09;;;;;;;;;;;10.50;99.90;;;;;;5004331;28;19921;-67
2023/04/07 11:42:36;;;;;;;;;;;10.50;99.90;;;;;;5004516;28;19928;-67
2023/04/07 11:45:05;;;;;;;;;;;10.70;99.90;;;;;;4999007;28;20004;-67
2023/04/07 11:47:35;;;;;;;;;;;10.90;99.90;;;;;;4996113;28;19929;-69
2023/04/07 11:50:01;;;;;;;;;;;11.20;99.90;;;;;;4998430;28;19953;-66
2023/04/07 11:52:28;;;;;;;;;;;11.30;99.90;;;;;;5000780;28;20301;-66
2023/04/07 11:54:55;;;;;;;;;;;11.10;99.90;;;;;;5003532;28;19985;-66
2023/04/07 11:57:25;;;;;;;;;;;11.00;99.90;;;;;;5002849;28;20013;-67
2023/04/07 12:00:05;;;;;;;;;;;10.90;99.90;;;;;;5003833;28;19926;-66
2023/04/07 12:02:33;;;;;;;;;;;11.00;99.90;;;;;;5003002;28;19922;-66
2023/04/07 12:05:00;;;;;;;;;;;11.00;99.90;;;;;;5003851;28;20133;-68
2023/04/07 12:07:26;;;;;;;;;;;11.10;99.90;;;;;;5003017;28;19960;-67
2023/04/07 12:09:53;;;;;;;;;;;11.10;99.90;;;;;;4998168;28;20090;-66
2023/04/07 12:12:25;;;;;;;;;;;11.20;99.90;;;;;;5003606;28;20113;-66
2023/04/07 12:14:51;;;;;;;;;;;11.20;99.90;;;;;;5003485;28;19930;-67
2023/04/07 12:17:21;;;;;;;;;;;11.20;99.90;;;;;;5003538;28;19921;-67
2023/04/07 12:19:49;;;;;;;;;;;11.10;99.90;;;;;;5002739;28;20012;-67
2023/04/07 12:22:16;;;;;;;;;;;11.10;99.90;;;;;;5001660;28;19928;-68
2023/04/07 12:24:43;;;;;;;;;;;11.00;99.90;;;;;;5002782;28;20193;-67
2023/04/07 12:27:09;;;;;;;;;;;11.00;99.90;;;;;;5002829;28;19953;-67
2023/04/07 12:29:37;;;;;;;;;;;11.00;99.90;;;;;;5003186;28;19989;-68
2023/04/07 12:32:04;;;;;;;;;;;11.10;99.90;;;;;;5003646;28;19992;-68
2023/04/07 12:34:30;;;;;;;;;;;11.20;99.90;;;;;;5002105;28;19998;-67
2023/04/07 12:36:58;;;;;;;;;;;11.20;99.90;;;;;;5000449;28;19953;-69
2023/04/07 12:39:25;;;;;;;;;;;11.30;99.90;;;;;;5001051;28;19960;-69
2023/04/07 12:41:52;;;;;;;;;;;11.40;99.90;;;;;;4993587;28;19985;-68
2023/04/07 12:44:18;;;;;;;;;;;11.40;99.90;;;;;;5002231;28;19922;-68
2023/04/07 12:46:45;;;;;;;;;;;11.40;99.90;;;;;;5003428;28;19993;-66
2023/04/07 12:49:12;;;;;;;;;;;11.40;99.90;;;;;;5000601;28;19928;-66
2023/04/07 12:51:39;;;;;;;;;;;11.50;99.90;;;;;;5003335;28;20138;-66
2023/04/07 12:54:07;;;;;;;;;;;11.50;99.90;;;;;;5003210;28;19922;-67
2023/04/07 12:56:34;;;;;;;;;;;11.50;99.90;;;;;;5003324;28;19963;-65
2023/04/07 12:59:00;;;;;;;;;;;11.50;99.90;;;;;;5003326;28;19930;-65
2023/04/07 13:01:27;;;;;;;;;;;11.50;99.90;;;;;;5003198;28;19964;-67
2023/04/07 13:03:54;;;;;;;;;;;11.50;99.90;;;;;;5003495;28;19964;-67
2023/04/07 13:06:21;;;;;;;;;;;11.50;99.90;;;;;;5002406;28;19945;-67
2023/04/07 13:08:48;;;;;;;;;;;11.60;99.90;;;;;;5003560;28;20171;-65
2023/04/07 13:11:16;;;;;;;;;;;12.00;99.90;;;;;;4993551;28;19929;-65
2023/04/07 13:13:42;;;;;;;;;;;12.20;99.90;;;;;;5006805;28;19928;-67
2023/04/07 13:16:09;;;;;;;;;;;12.20;99.90;;;;;;5002652;28;19960;-66
2023/04/07 13:18:36;;;;;;;;;;;12.10;99.90;;;;;;5006265;28;19989;-67
2023/04/07 13:21:03;;;;;;;;;;;12.00;99.90;;;;;;5006097;28;20149;-66
2023/04/07 13:23:29;;;;;;;;;;;11.90;99.90;;;;;;5006566;28;19922;-66
2023/04/07 13:25:56;;;;;;;;;;;11.80;99.90;;;;;;5003340;28;19985;-66
2023/04/07 13:28:26;;;;;;;;;;;11.80;99.90;;;;;;4992093;28;19957;-66
2023/04/07 13:30:53;;;;;;;;;;;11.80;99.90;;;;;;4998320;28;19960;-66
2023/04/07 13:33:21;;;;;;;;;;;11.70;99.90;;;;;;5006551;28;19961;-68
2023/04/07 13:35:47;;;;;;;;;;;11.70;99.90;;;;;;5004168;28;19928;-68
2023/04/07 13:38:14;;;;;;;;;;;11.60;99.90;;;;;;5004056;28;19993;-67
2023/04/07 13:40:41;;;;;;;;;;;11.50;99.90;;;;;;5001385;28;20209;-67
2023/04/07 13:43:10;;;;;;;;;;;11.40;99.90;;;;;;5004235;28;20134;-67
2023/04/07 13:45:38;;;;;;;;;;;11.40;99.90;;;;;;5006359;28;19925;-68
2023/04/07 13:48:05;;;;;;;;;;;11.40;99.90;;;;;;5001175;28;19922;-68
2023/04/07 13:50:31;;;;;;;;;;;11.40;99.90;;;;;;5003753;28;19926;-67
2023/04/07 13:52:58;;;;;;;;;;;11.30;99.90;;;;;;5005732;28;19984;-67
2023/04/07 13:55:24;;;;;;;;;;;11.40;99.90;;;;;;5005923;28;19956;-67
2023/04/07 13:57:51;;;;;;;;;;;11.40;99.90;;;;;;5005684;28;20175;-67
2023/04/07 14:00:19;;;;;;;;;;;11.40;99.90;;;;;;4998149;28;19936;-67
2023/04/07 14:02:48;;;;;;;;;;;11.50;99.90;;;;;;5006057;28;19929;-67
2023/04/07 14:05:15;;;;;;;;;;;11.50;99.90;;;;;;4986772;28;19922;-67
2023/04/07 14:07:41;;;;;;;;;;;11.60;99.90;;;;;;4985947;28;19922;-66
2023/04/07 14:10:08;;;;;;;;;;;11.70;99.90;;;;;;4986724;28;20205;-69
2023/04/07 14:12:35;;;;;;;;;;;11.80;99.90;;;;;;5000167;28;19988;-67
2023/04/07 14:15:03;;;;;;;;;;;11.90;99.90;;;;;;5005460;28;19945;-69
2023/04/07 14:17:29;;;;;;;;;;;12.00;99.90;;;;;;5005435;28;19926;-68
2023/04/07 14:19:57;;;;;;;;;;;12.20;99.90;;;;;;5005952;28;20213;-67
2023/04/07 14:22:24;;;;;;;;;;;12.20;99.90;;;;;;5005884;28;19944;-70
2023/04/07 14:24:50;;;;;;;;;;;12.30;99.90;;;;;;5000296;28;19956;-68
2023/04/07 14:27:19;;;;;;;;;;;12.30;99.90;;;;;;4993855;28;20154;-67
2023/04/07 14:29:46;;;;;;;;;;;12.40;99.90;;;;;;5005804;28;20227;-67